sensor_id;sensor_type;location;lat;lon;timestamp;temperature;humidity
13052;DHT22;6592;47.484;9.726;2024-02-21T00:00:07;4.80;99.90
13052;DHT22;6592;47.484;9.726;2024-02-21T00:02:36;4.80;99.90
13052;DHT22;6592;47.484;9.726;2024-02-21T00:05:05;4.70;99.90
13052;DHT22;6592;47.484;9.726;2024-02-21T00:07:34;4.70;99.90
13052;DHT22;6592;47.484;9.726;2024-02-21T00:10:03;4.70;99.90
13052;DHT22;6592;47.484;9.726;2024-02-21T00:12:31;4.60;99.90
13052;DHT22;6592;47.484;9.726;2024-02-21T00:15:01;4.60;99.90
13052;DHT22;6592;47.484;9.726;2024-02-21T00:17:29;4.60;99.90
13052;DHT22;6592;47.484;9.726;2024-02-21T00:19:58;4.50;99.90
13052;DHT22;6592;47.484;9.726;2024-02-21T00:22:26;4.50;99.90
13052;DHT22;6592;47.484;9.726;2024-02-21T00:24:56;4.50;99.90
13052;DHT22;6592;47.484;9.726;2024-02-21T00:27:25;4.50;99.90
13052;DHT22;6592;47.484;9.726;2024-02-21T00:29:53;4.50;99.90
13052;DHT22;6592;47.484;9.726;2024-02-21T00:32:22;4.50;99.90
13052;DHT22;6592;47.484;9.726;2024-02-21T00:34:51;4.40;99.90
13052;DHT22;6592;47.484;9.726;2024-02-21T00:37:19;4.40;99.90
13052;DHT22;6592;47.484;9.726;2024-02-21T00:39:47;4.30;99.90
13052;DHT22;6592;47.484;9.726;2024-02-21T00:42:16;4.30;99.90
13052;DHT22;6592;47.484;9.726;2024-02-21T00:44:44;4.20;99.90
13052;DHT22;6592;47.484;9.726;2024-02-21T00:47:12;4.10;99.90
13052;DHT22;6592;47.484;9.726;2024-02-21T00:49:42;4.10;99.90
13052;DHT22;6592;47.484;9.726;2024-02-21T00:52:10;4.10;99.90
13052;DHT22;6592;47.484;9.726;2024-02-21T00:54:39;4.20;99.90
13052;DHT22;6592;47.484;9.726;2024-02-21T00:57:19;4.20;99.90
13052;DHT22;6592;47.484;9.726;2024-02-21T00:59:47;4.30;99.90
13052;DHT22;6592;47.484;9.726;2024-02-21T01:02:15;4.30;99.90
13052;DHT22;6592;47.484;9.726;2024-02-21T01:04:45;4.30;99.90
13052;DHT22;6592;47.484;9.726;2024-02-21T01:07:13;4.30;99.90
13052;DHT22;6592;47.484;9.726;2024-02-21T01:09:42;4.20;99.90
13052;DHT22;6592;47.484;9.726;2024-02-21T01:12:10;4.20;99.90
13052;DHT22;6592;47.484;9.726;2024-02-21T01:14:38;4.20;99.90
13052;DHT22;6592;47.484;9.726;2024-02-21T01:17:06;4.10;99.90
13052;DHT22;6592;47.484;9.726;2024-02-21T01:19:35;4.10;99.90
13052;DHT22;6592;47.484;9.726;2024-02-21T01:22:04;4.20;99.90
13052;DHT22;6592;47.484;9.726;2024-02-21T01:24:32;4.20;99.90
13052;DHT22;6592;47.484;9.726;2024-02-21T01:27:01;4.20;99.90
13052;DHT22;6592;47.484;9.726;2024-02-21T01:29:29;4.10;99.90
13052;DHT22;6592;47.484;9.726;2024-02-21T01:31:57;4.10;99.90
13052;DHT22;6592;47.484;9.726;2024-02-21T01:34:26;4.00;99.90
13052;DHT22;6592;47.484;9.726;2024-02-21T01:36:58;4.00;99.90
13052;DHT22;6592;47.484;9.726;2024-02-21T01:39:32;4.00;99.90
13052;DHT22;6592;47.484;9.726;2024-02-21T01:42:01;3.90;99.90
13052;DHT22;6592;47.484;9.726;2024-02-21T01:44:29;3.90;99.90
13052;DHT22;6592;47.484;9.726;2024-02-21T01:46:58;3.90;99.90
13052;DHT22;6592;47.484;9.726;2024-02-21T01:49:27;3.90;99.90
13052;DHT22;6592;47.484;9.726;2024-02-21T01:51:55;3.90;99.90
13052;DHT22;6592;47.484;9.726;2024-02-21T01:54:25;3.90;99.90
13052;DHT22;6592;47.484;9.726;2024-02-21T01:56:57;3.90;99.90
13052;DHT22;6592;47.484;9.726;2024-02-21T01:59:26;3.90;99.90
13052;DHT22;6592;47.484;9.726;2024-02-21T02:01:55;3.90;99.90
13052;DHT22;6592;47.484;9.726;2024-02-21T02:04:24;3.90;99.90
13052;DHT22;6592;47.484;9.726;2024-02-21T02:06:54;3.80;99.90
13052;DHT22;6592;47.484;9.726;2024-02-21T02:09:23;3.80;99.90
13052;DHT22;6592;47.484;9.726;2024-02-21T02:11:51;3.80;99.90
13052;DHT22;6592;47.484;9.726;2024-02-21T02:14:21;3.80;99.90
13052;DHT22;6592;47.484;9.726;2024-02-21T02:16:49;3.70;99.90
13052;DHT22;6592;47.484;9.726;2024-02-21T02:19:18;3.80;99.90
13052;DHT22;6592;47.484;9.726;2024-02-21T02:21:49;3.80;99.90
13052;DHT22;6592;47.484;9.726;2024-02-21T02:24:24;3.80;99.90
13052;DHT22;6592;47.484;9.726;2024-02-21T02:26:52;3.90;99.90
13052;DHT22;6592;47.484;9.726;2024-02-21T02:29:20;3.90;99.90
13052;DHT22;6592;47.484;9.726;2024-02-21T02:31:49;3.90;99.90
13052;DHT22;6592;47.484;9.726;2024-02-21T02:34:18;3.80;99.90
13052;DHT22;6592;47.484;9.726;2024-02-21T02:36:46;3.80;99.90
13052;DHT22;6592;47.484;9.726;2024-02-21T02:39:16;3.80;99.90
13052;DHT22;6592;47.484;9.726;2024-02-21T02:41:45;3.70;99.90
13052;DHT22;6592;47.484;9.726;2024-02-21T02:44:14;3.70;99.90
13052;DHT22;6592;47.484;9.726;2024-02-21T02:46:43;3.70;99.90
13052;DHT22;6592;47.484;9.726;2024-02-21T02:49:11;3.70;99.90
13052;DHT22;6592;47.484;9.726;2024-02-21T02:51:41;3.70;99.90
13052;DHT22;6592;47.484;9.726;2024-02-21T02:54:10;3.80;99.90
13052;DHT22;6592;47.484;9.726;2024-02-21T02:56:38;3.80;99.90
13052;DHT22;6592;47.484;9.726;2024-02-21T02:59:08;3.80;99.90
13052;DHT22;6592;47.484;9.726;2024-02-21T03:01:37;3.90;99.90
13052;DHT22;6592;47.484;9.726;2024-02-21T03:04:05;3.90;99.90
13052;DHT22;6592;47.484;9.726;2024-02-21T03:06:33;3.90;99.90
13052;DHT22;6592;47.484;9.726;2024-02-21T03:09:02;4.00;99.90
13052;DHT22;6592;47.484;9.726;2024-02-21T03:11:36;3.90;99.90
13052;DHT22;6592;47.484;9.726;2024-02-21T03:14:09;4.00;99.90
13052;DHT22;6592;47.484;9.726;2024-02-21T03:16:37;4.00;99.90
13052;DHT22;6592;47.484;9.726;2024-02-21T03:19:06;4.00;99.90
13052;DHT22;6592;47.484;9.726;2024-02-21T03:21:34;3.90;99.90
13052;DHT22;6592;47.484;9.726;2024-02-21T03:24:03;3.90;99.90
13052;DHT22;6592;47.484;9.726;2024-02-21T03:26:31;3.90;99.90
13052;DHT22;6592;47.484;9.726;2024-02-21T03:28:59;4.00;99.90
13052;DHT22;6592;47.484;9.726;2024-02-21T03:31:29;3.90;99.90
13052;DHT22;6592;47.484;9.726;2024-02-21T03:33:58;4.00;99.90
13052;DHT22;6592;47.484;9.726;2024-02-21T03:36:27;4.00;99.90
13052;DHT22;6592;47.484;9.726;2024-02-21T03:38:55;3.90;99.90
13052;DHT22;6592;47.484;9.726;2024-02-21T03:41:23;3.80;99.90
13052;DHT22;6592;47.484;9.726;2024-02-21T03:43:52;3.90;99.90
13052;DHT22;6592;47.484;9.726;2024-02-21T03:46:20;3.90;99.90
13052;DHT22;6592;47.484;9.726;2024-02-21T03:48:50;4.00;99.90
13052;DHT22;6592;47.484;9.726;2024-02-21T03:51:18;4.00;99.90
13052;DHT22;6592;47.484;9.726;2024-02-21T03:53:46;4.10;99.90
13052;DHT22;6592;47.484;9.726;2024-02-21T03:56:15;4.10;99.90
13052;DHT22;6592;47.484;9.726;2024-02-21T03:58:43;4.20;99.90
13052;DHT22;6592;47.484;9.726;2024-02-21T04:01:11;4.20;99.90
13052;DHT22;6592;47.484;9.726;2024-02-21T04:03:40;4.20;99.90
13052;DHT22;6592;47.484;9.726;2024-02-21T04:06:10;4.30;99.90
13052;DHT22;6592;47.484;9.726;2024-02-21T04:08:39;4.20;99.90
13052;DHT22;6592;47.484;9.726;2024-02-21T04:11:07;4.20;99.90
13052;DHT22;6592;47.484;9.726;2024-02-21T04:13:35;4.10;99.90
13052;DHT22;6592;47.484;9.726;2024-02-21T04:16:04;4.10;99.90
13052;DHT22;6592;47.484;9.726;2024-02-21T04:18:33;4.00;99.90
13052;DHT22;6592;47.484;9.726;2024-02-21T04:21:02;4.00;99.90
13052;DHT22;6592;47.484;9.726;2024-02-21T04:23:31;4.00;99.90
13052;DHT22;6592;47.484;9.726;2024-02-21T04:26:00;4.00;99.90
13052;DHT22;6592;47.484;9.726;2024-02-21T04:28:28;4.00;99.90
13052;DHT22;6592;47.484;9.726;2024-02-21T04:30:56;4.00;99.90
13052;DHT22;6592;47.484;9.726;2024-02-21T04:33:24;4.10;99.90
13052;DHT22;6592;47.484;9.726;2024-02-21T04:35:53;4.00;99.90
13052;DHT22;6592;47.484;9.726;2024-02-21T04:38:22;4.10;99.90
13052;DHT22;6592;47.484;9.726;2024-02-21T04:40:51;4.00;99.90
13052;DHT22;6592;47.484;9.726;2024-02-21T04:43:20;4.00;99.90
13052;DHT22;6592;47.484;9.726;2024-02-21T04:45:48;4.00;99.90
13052;DHT22;6592;47.484;9.726;2024-02-21T04:48:17;3.90;99.90
13052;DHT22;6592;47.484;9.726;2024-02-21T04:50:45;3.90;99.90
13052;DHT22;6592;47.484;9.726;2024-02-21T04:53:14;3.90;99.90
13052;DHT22;6592;47.484;9.726;2024-02-21T04:55:43;3.80;99.90
13052;DHT22;6592;47.484;9.726;2024-02-21T04:58:12;3.90;99.90
13052;DHT22;6592;47.484;9.726;2024-02-21T05:00:41;4.00;99.90
13052;DHT22;6592;47.484;9.726;2024-02-21T05:03:09;4.00;99.90
13052;DHT22;6592;47.484;9.726;2024-02-21T05:05:38;3.90;99.90
13052;DHT22;6592;47.484;9.726;2024-02-21T05:08:07;3.90;99.90
13052;DHT22;6592;47.484;9.726;2024-02-21T05:10:35;3.90;99.90
13052;DHT22;6592;47.484;9.726;2024-02-21T05:13:04;3.90;99.90
13052;DHT22;6592;47.484;9.726;2024-02-21T05:15:33;3.80;99.90
13052;DHT22;6592;47.484;9.726;2024-02-21T05:18:01;3.80;99.90
13052;DHT22;6592;47.484;9.726;2024-02-21T05:20:30;3.90;99.90
13052;DHT22;6592;47.484;9.726;2024-02-21T05:22:58;3.90;99.90
13052;DHT22;6592;47.484;9.726;2024-02-21T05:25:27;3.90;99.90
13052;DHT22;6592;47.484;9.726;2024-02-21T05:27:55;3.90;99.90
13052;DHT22;6592;47.484;9.726;2024-02-21T05:30:28;3.80;99.90
13052;DHT22;6592;47.484;9.726;2024-02-21T05:32:58;3.80;99.90
13052;DHT22;6592;47.484;9.726;2024-02-21T05:35:27;3.80;99.90
13052;DHT22;6592;47.484;9.726;2024-02-21T05:37:55;3.80;99.90
13052;DHT22;6592;47.484;9.726;2024-02-21T05:40:24;3.80;99.90
13052;DHT22;6592;47.484;9.726;2024-02-21T05:42:52;3.90;99.90
13052;DHT22;6592;47.484;9.726;2024-02-21T05:45:20;3.90;99.90
13052;DHT22;6592;47.484;9.726;2024-02-21T05:47:48;3.90;99.90
13052;DHT22;6592;47.484;9.726;2024-02-21T05:50:18;3.90;99.90
13052;DHT22;6592;47.484;9.726;2024-02-21T05:52:48;4.00;99.90
13052;DHT22;6592;47.484;9.726;2024-02-21T05:55:17;4.10;99.90
13052;DHT22;6592;47.484;9.726;2024-02-21T05:57:45;4.20;99.90
13052;DHT22;6592;47.484;9.726;2024-02-21T06:00:15;4.30;99.90
13052;DHT22;6592;47.484;9.726;2024-02-21T06:02:43;4.30;99.90
13052;DHT22;6592;47.484;9.726;2024-02-21T06:05:11;4.40;99.90
13052;DHT22;6592;47.484;9.726;2024-02-21T06:07:41;4.30;99.90
13052;DHT22;6592;47.484;9.726;2024-02-21T06:10:10;4.30;99.90
13052;DHT22;6592;47.484;9.726;2024-02-21T06:12:38;4.20;99.90
13052;DHT22;6592;47.484;9.726;2024-02-21T06:15:07;4.30;99.90
13052;DHT22;6592;47.484;9.726;2024-02-21T06:17:35;4.30;99.90
13052;DHT22;6592;47.484;9.726;2024-02-21T06:20:05;4.30;99.90
13052;DHT22;6592;47.484;9.726;2024-02-21T06:22:33;4.30;99.90
13052;DHT22;6592;47.484;9.726;2024-02-21T06:25:03;4.30;99.90
13052;DHT22;6592;47.484;9.726;2024-02-21T06:27:31;4.40;99.90
13052;DHT22;6592;47.484;9.726;2024-02-21T06:30:00;4.40;99.90
13052;DHT22;6592;47.484;9.726;2024-02-21T06:32:28;4.40;99.90
13052;DHT22;6592;47.484;9.726;2024-02-21T06:34:56;4.40;99.90
13052;DHT22;6592;47.484;9.726;2024-02-21T06:37:24;4.50;99.90
13052;DHT22;6592;47.484;9.726;2024-02-21T06:39:53;4.50;99.90
13052;DHT22;6592;47.484;9.726;2024-02-21T06:42:24;4.60;99.90
13052;DHT22;6592;47.484;9.726;2024-02-21T06:44:52;4.60;99.90
13052;DHT22;6592;47.484;9.726;2024-02-21T06:47:21;4.70;99.90
13052;DHT22;6592;47.484;9.726;2024-02-21T06:49:50;4.70;99.90
13052;DHT22;6592;47.484;9.726;2024-02-21T06:52:18;4.90;99.90
13052;DHT22;6592;47.484;9.726;2024-02-21T06:54:48;5.00;99.90
13052;DHT22;6592;47.484;9.726;2024-02-21T06:57:16;5.00;99.90
13052;DHT22;6592;47.484;9.726;2024-02-21T06:59:46;5.00;99.90
13052;DHT22;6592;47.484;9.726;2024-02-21T07:02:14;5.00;99.90
13052;DHT22;6592;47.484;9.726;2024-02-21T07:04:42;5.10;99.90
13052;DHT22;6592;47.484;9.726;2024-02-21T07:07:11;5.10;99.90
13052;DHT22;6592;47.484;9.726;2024-02-21T07:09:40;5.10;99.90
13052;DHT22;6592;47.484;9.726;2024-02-21T07:12:09;5.10;99.90
13052;DHT22;6592;47.484;9.726;2024-02-21T07:14:37;5.00;99.90
13052;DHT22;6592;47.484;9.726;2024-02-21T07:17:07;5.10;99.90
13052;DHT22;6592;47.484;9.726;2024-02-21T07:19:35;5.10;99.90
13052;DHT22;6592;47.484;9.726;2024-02-21T07:22:04;5.10;99.90
13052;DHT22;6592;47.484;9.726;2024-02-21T07:24:32;5.00;99.90
13052;DHT22;6592;47.484;9.726;2024-02-21T07:27:00;5.20;99.90
13052;DHT22;6592;47.484;9.726;2024-02-21T07:29:31;5.30;99.90
13052;DHT22;6592;47.484;9.726;2024-02-21T07:32:00;5.30;99.90
13052;DHT22;6592;47.484;9.726;2024-02-21T07:34:29;5.30;99.90
13052;DHT22;6592;47.484;9.726;2024-02-21T07:36:58;5.40;99.90
13052;DHT22;6592;47.484;9.726;2024-02-21T07:39:26;5.30;99.90
13052;DHT22;6592;47.484;9.726;2024-02-21T07:41:54;5.30;99.90
13052;DHT22;6592;47.484;9.726;2024-02-21T07:44:23;6.00;99.90
13052;DHT22;6592;47.484;9.726;2024-02-21T07:46:51;6.90;99.90
13052;DHT22;6592;47.484;9.726;2024-02-21T07:49:19;8.10;99.90
13052;DHT22;6592;47.484;9.726;2024-02-21T07:51:49;9.10;99.90
13052;DHT22;6592;47.484;9.726;2024-02-21T07:54:17;10.40;99.90
13052;DHT22;6592;47.484;9.726;2024-02-21T07:56:47;11.90;99.90
13052;DHT22;6592;47.484;9.726;2024-02-21T07:59:15;13.00;99.90
13052;DHT22;6592;47.484;9.726;2024-02-21T08:01:43;13.90;99.90
13052;DHT22;6592;47.484;9.726;2024-02-21T08:04:13;14.00;99.90
13052;DHT22;6592;47.484;9.726;2024-02-21T08:06:41;14.10;99.90
13052;DHT22;6592;47.484;9.726;2024-02-21T08:09:12;13.50;99.90
13052;DHT22;6592;47.484;9.726;2024-02-21T08:11:40;13.60;99.90
13052;DHT22;6592;47.484;9.726;2024-02-21T08:14:08;13.90;99.90
13052;DHT22;6592;47.484;9.726;2024-02-21T08:16:36;13.90;99.90
13052;DHT22;6592;47.484;9.726;2024-02-21T08:19:05;13.30;99.90
13052;DHT22;6592;47.484;9.726;2024-02-21T08:21:33;13.30;99.90
13052;DHT22;6592;47.484;9.726;2024-02-21T08:24:02;13.70;99.90
13052;DHT22;6592;47.484;9.726;2024-02-21T08:26:31;14.00;99.90
13052;DHT22;6592;47.484;9.726;2024-02-21T08:29:00;14.60;99.90
13052;DHT22;6592;47.484;9.726;2024-02-21T08:31:28;15.40;99.90
13052;DHT22;6592;47.484;9.726;2024-02-21T08:33:58;16.20;99.90
13052;DHT22;6592;47.484;9.726;2024-02-21T08:36:30;16.00;99.90
13052;DHT22;6592;47.484;9.726;2024-02-21T08:38:59;16.30;99.90
13052;DHT22;6592;47.484;9.726;2024-02-21T08:41:28;16.30;99.90
13052;DHT22;6592;47.484;9.726;2024-02-21T08:44:19;16.40;99.90
13052;DHT22;6592;47.484;9.726;2024-02-21T08:46:47;15.80;99.90
13052;DHT22;6592;47.484;9.726;2024-02-21T08:49:15;15.30;99.90
13052;DHT22;6592;47.484;9.726;2024-02-21T08:51:44;14.80;99.90
13052;DHT22;6592;47.484;9.726;2024-02-21T08:54:13;15.00;99.90
13052;DHT22;6592;47.484;9.726;2024-02-21T08:56:42;15.20;99.90
13052;DHT22;6592;47.484;9.726;2024-02-21T08:59:10;15.20;99.90
13052;DHT22;6592;47.484;9.726;2024-02-21T09:01:40;15.20;99.90
13052;DHT22;6592;47.484;9.726;2024-02-21T09:04:08;15.60;99.90
13052;DHT22;6592;47.484;9.726;2024-02-21T09:06:36;15.40;99.90
13052;DHT22;6592;47.484;9.726;2024-02-21T09:09:08;15.00;99.90
13052;DHT22;6592;47.484;9.726;2024-02-21T09:11:37;15.00;99.90
13052;DHT22;6592;47.484;9.726;2024-02-21T09:14:06;15.10;99.90
13052;DHT22;6592;47.484;9.726;2024-02-21T09:16:35;16.00;99.90
13052;DHT22;6592;47.484;9.726;2024-02-21T09:19:05;16.50;99.80
13052;DHT22;6592;47.484;9.726;2024-02-21T09:21:34;16.80;98.90
13052;DHT22;6592;47.484;9.726;2024-02-21T09:24:02;17.80;97.80
13052;DHT22;6592;47.484;9.726;2024-02-21T09:26:31;17.80;95.10
13052;DHT22;6592;47.484;9.726;2024-02-21T09:28:59;17.70;94.30
13052;DHT22;6592;47.484;9.726;2024-02-21T09:31:28;18.00;93.90
13052;DHT22;6592;47.484;9.726;2024-02-21T09:33:56;18.40;94.50
13052;DHT22;6592;47.484;9.726;2024-02-21T09:36:26;18.80;92.50
13052;DHT22;6592;47.484;9.726;2024-02-21T09:38:54;18.90;91.80
13052;DHT22;6592;47.484;9.726;2024-02-21T09:41:25;19.00;90.10
13052;DHT22;6592;47.484;9.726;2024-02-21T09:43:54;19.20;91.30
13052;DHT22;6592;47.484;9.726;2024-02-21T09:46:44;19.40;94.50
13052;DHT22;6592;47.484;9.726;2024-02-21T09:49:24;19.50;96.70
13052;DHT22;6592;47.484;9.726;2024-02-21T09:51:57;19.40;97.60
13052;DHT22;6592;47.484;9.726;2024-02-21T09:54:29;19.70;98.10
13052;DHT22;6592;47.484;9.726;2024-02-21T09:57:00;19.90;97.80
13052;DHT22;6592;47.484;9.726;2024-02-21T09:59:30;19.90;96.90
13052;DHT22;6592;47.484;9.726;2024-02-21T10:01:59;19.20;97.20
13052;DHT22;6592;47.484;9.726;2024-02-21T10:04:29;19.50;98.40
13052;DHT22;6592;47.484;9.726;2024-02-21T10:07:00;19.60;98.60
13052;DHT22;6592;47.484;9.726;2024-02-21T10:09:29;19.90;98.10
13052;DHT22;6592;47.484;9.726;2024-02-21T10:12:08;20.20;99.00
13052;DHT22;6592;47.484;9.726;2024-02-21T10:14:38;20.20;98.10
13052;DHT22;6592;47.484;9.726;2024-02-21T10:17:06;20.30;98.70
13052;DHT22;6592;47.484;9.726;2024-02-21T10:19:38;20.30;98.10
13052;DHT22;6592;47.484;9.726;2024-02-21T10:22:09;20.10;98.60
13052;DHT22;6592;47.484;9.726;2024-02-21T10:24:38;20.10;98.50
13052;DHT22;6592;47.484;9.726;2024-02-21T10:27:09;20.70;98.50
13052;DHT22;6592;47.484;9.726;2024-02-21T10:29:40;21.20;97.20
13052;DHT22;6592;47.484;9.726;2024-02-21T10:32:09;21.40;95.50
13052;DHT22;6592;47.484;9.726;2024-02-21T10:34:41;22.00;95.60
13052;DHT22;6592;47.484;9.726;2024-02-21T10:37:12;22.70;95.50
13052;DHT22;6592;47.484;9.726;2024-02-21T10:39:42;23.60;93.10
13052;DHT22;6592;47.484;9.726;2024-02-21T10:42:12;24.10;93.10
13052;DHT22;6592;47.484;9.726;2024-02-21T10:44:40;24.80;90.20
13052;DHT22;6592;47.484;9.726;2024-02-21T10:47:10;24.70;86.10
13052;DHT22;6592;47.484;9.726;2024-02-21T10:49:41;25.10;87.60
13052;DHT22;6592;47.484;9.726;2024-02-21T10:52:15;25.40;84.40
13052;DHT22;6592;47.484;9.726;2024-02-21T10:54:47;26.00;79.30
13052;DHT22;6592;47.484;9.726;2024-02-21T10:57:17;25.90;81.80
13052;DHT22;6592;47.484;9.726;2024-02-21T10:59:48;25.90;78.90
13052;DHT22;6592;47.484;9.726;2024-02-21T11:02:16;26.20;75.10
13052;DHT22;6592;47.484;9.726;2024-02-21T11:04:46;26.50;74.90
13052;DHT22;6592;47.484;9.726;2024-02-21T11:07:16;26.90;73.90
13052;DHT22;6592;47.484;9.726;2024-02-21T11:09:51;27.10;71.50
13052;DHT22;6592;47.484;9.726;2024-02-21T11:12:22;26.90;67.70
13052;DHT22;6592;47.484;9.726;2024-02-21T11:14:51;26.70;68.20
13052;DHT22;6592;47.484;9.726;2024-02-21T11:17:20;26.90;70.10
13052;DHT22;6592;47.484;9.726;2024-02-21T11:19:53;27.20;67.20
13052;DHT22;6592;47.484;9.726;2024-02-21T11:22:23;27.60;67.30
13052;DHT22;6592;47.484;9.726;2024-02-21T11:25:06;27.80;65.70
13052;DHT22;6592;47.484;9.726;2024-02-21T11:27:38;27.80;65.00
13052;DHT22;6592;47.484;9.726;2024-02-21T11:30:07;27.60;63.90
13052;DHT22;6592;47.484;9.726;2024-02-21T11:32:42;27.60;64.20
13052;DHT22;6592;47.484;9.726;2024-02-21T11:35:19;28.20;62.40
13052;DHT22;6592;47.484;9.726;2024-02-21T11:37:49;28.20;60.30
13052;DHT22;6592;47.484;9.726;2024-02-21T11:40:17;28.00;61.20
13052;DHT22;6592;47.484;9.726;2024-02-21T11:42:46;27.90;59.40
13052;DHT22;6592;47.484;9.726;2024-02-21T11:45:15;27.90;60.70
13052;DHT22;6592;47.484;9.726;2024-02-21T11:47:44;28.00;60.60
13052;DHT22;6592;47.484;9.726;2024-02-21T11:50:13;27.90;59.80
13052;DHT22;6592;47.484;9.726;2024-02-21T11:52:46;27.60;60.20
13052;DHT22;6592;47.484;9.726;2024-02-21T11:55:17;27.40;60.60
13052;DHT22;6592;47.484;9.726;2024-02-21T11:57:48;27.20;59.80
13052;DHT22;6592;47.484;9.726;2024-02-21T12:00:17;26.80;60.10
13052;DHT22;6592;47.484;9.726;2024-02-21T12:02:47;26.50;60.10
13052;DHT22;6592;47.484;9.726;2024-02-21T12:05:19;26.10;60.10
13052;DHT22;6592;47.484;9.726;2024-02-21T12:07:47;25.80;59.30
13052;DHT22;6592;47.484;9.726;2024-02-21T12:10:17;25.00;62.30
13052;DHT22;6592;47.484;9.726;2024-02-21T12:12:46;24.90;62.30
13052;DHT22;6592;47.484;9.726;2024-02-21T12:15:14;24.40;63.00
13052;DHT22;6592;47.484;9.726;2024-02-21T12:17:43;24.30;64.00
13052;DHT22;6592;47.484;9.726;2024-02-21T12:20:12;24.40;64.30
13052;DHT22;6592;47.484;9.726;2024-02-21T12:22:42;24.30;65.00
13052;DHT22;6592;47.484;9.726;2024-02-21T12:25:21;24.20;64.70
13052;DHT22;6592;47.484;9.726;2024-02-21T12:27:53;24.20;63.90
13052;DHT22;6592;47.484;9.726;2024-02-21T12:30:21;24.30;65.50
13052;DHT22;6592;47.484;9.726;2024-02-21T12:32:49;24.40;64.00
13052;DHT22;6592;47.484;9.726;2024-02-21T12:35:17;24.50;63.00
13052;DHT22;6592;47.484;9.726;2024-02-21T12:37:46;24.80;64.20
13052;DHT22;6592;47.484;9.726;2024-02-21T12:40:15;25.10;64.00
13052;DHT22;6592;47.484;9.726;2024-02-21T12:42:45;25.50;61.30
13052;DHT22;6592;47.484;9.726;2024-02-21T12:45:13;25.80;60.10
13052;DHT22;6592;47.484;9.726;2024-02-21T12:47:43;25.70;60.00
13052;DHT22;6592;47.484;9.726;2024-02-21T12:50:11;25.80;60.00
13052;DHT22;6592;47.484;9.726;2024-02-21T12:52:39;25.60;60.40
13052;DHT22;6592;47.484;9.726;2024-02-21T12:55:08;25.90;60.60
13052;DHT22;6592;47.484;9.726;2024-02-21T12:57:38;26.40;60.30
13052;DHT22;6592;47.484;9.726;2024-02-21T13:00:09;26.10;58.90
13052;DHT22;6592;47.484;9.726;2024-02-21T13:02:38;26.40;57.80
13052;DHT22;6592;47.484;9.726;2024-02-21T13:05:07;26.30;59.20
13052;DHT22;6592;47.484;9.726;2024-02-21T13:07:35;25.50;57.30
13052;DHT22;6592;47.484;9.726;2024-02-21T13:10:04;25.50;59.00
13052;DHT22;6592;47.484;9.726;2024-02-21T13:12:33;25.50;59.40
13052;DHT22;6592;47.484;9.726;2024-02-21T13:15:01;25.60;58.20
13052;DHT22;6592;47.484;9.726;2024-02-21T13:17:31;25.40;58.50
13052;DHT22;6592;47.484;9.726;2024-02-21T13:20:00;25.30;58.30
13052;DHT22;6592;47.484;9.726;2024-02-21T13:22:28;25.00;58.50
13052;DHT22;6592;47.484;9.726;2024-02-21T13:24:57;24.70;59.10
13052;DHT22;6592;47.484;9.726;2024-02-21T13:27:25;24.70;59.80
13052;DHT22;6592;47.484;9.726;2024-02-21T13:29:53;24.20;60.00
13052;DHT22;6592;47.484;9.726;2024-02-21T13:32:21;24.10;60.40
13052;DHT22;6592;47.484;9.726;2024-02-21T13:34:52;24.20;60.10
13052;DHT22;6592;47.484;9.726;2024-02-21T13:37:20;24.20;61.80
13052;DHT22;6592;47.484;9.726;2024-02-21T13:39:49;24.20;61.40
13052;DHT22;6592;47.484;9.726;2024-02-21T13:42:17;24.20;61.50
13052;DHT22;6592;47.484;9.726;2024-02-21T13:44:46;23.90;61.50
13052;DHT22;6592;47.484;9.726;2024-02-21T13:47:14;23.60;61.80
13052;DHT22;6592;47.484;9.726;2024-02-21T13:49:43;23.50;61.70
13052;DHT22;6592;47.484;9.726;2024-02-21T13:52:13;23.20;63.20
13052;DHT22;6592;47.484;9.726;2024-02-21T13:54:42;23.10;63.30
13052;DHT22;6592;47.484;9.726;2024-02-21T13:57:10;22.90;64.20
13052;DHT22;6592;47.484;9.726;2024-02-21T13:59:38;22.60;63.20
13052;DHT22;6592;47.484;9.726;2024-02-21T14:02:09;22.30;64.00
13052;DHT22;6592;47.484;9.726;2024-02-21T14:04:38;22.00;64.00
13052;DHT22;6592;47.484;9.726;2024-02-21T14:07:07;21.90;64.90
13052;DHT22;6592;47.484;9.726;2024-02-21T14:09:36;21.70;65.10
13052;DHT22;6592;47.484;9.726;2024-02-21T14:12:06;21.40;65.70
13052;DHT22;6592;47.484;9.726;2024-02-21T14:14:35;21.30;66.70
13052;DHT22;6592;47.484;9.726;2024-02-21T14:17:06;21.30;67.60
13052;DHT22;6592;47.484;9.726;2024-02-21T14:19:34;21.20;66.40
13052;DHT22;6592;47.484;9.726;2024-02-21T14:22:02;21.20;66.50
13052;DHT22;6592;47.484;9.726;2024-02-21T14:24:31;21.00;66.40
13052;DHT22;6592;47.484;9.726;2024-02-21T14:27:00;20.90;65.90
13052;DHT22;6592;47.484;9.726;2024-02-21T14:29:30;20.80;65.80
13052;DHT22;6592;47.484;9.726;2024-02-21T14:31:58;20.60;66.70
13052;DHT22;6592;47.484;9.726;2024-02-21T14:34:27;20.40;65.00
13052;DHT22;6592;47.484;9.726;2024-02-21T14:36:55;19.90;65.10
13052;DHT22;6592;47.484;9.726;2024-02-21T14:39:23;19.60;67.10
13052;DHT22;6592;47.484;9.726;2024-02-21T14:41:51;19.40;68.50
13052;DHT22;6592;47.484;9.726;2024-02-21T14:44:21;19.20;68.80
13052;DHT22;6592;47.484;9.726;2024-02-21T14:46:49;18.90;68.70
13052;DHT22;6592;47.484;9.726;2024-02-21T14:49:18;18.70;69.50
13052;DHT22;6592;47.484;9.726;2024-02-21T14:51:47;18.50;70.30
13052;DHT22;6592;47.484;9.726;2024-02-21T14:54:16;18.10;69.30
13052;DHT22;6592;47.484;9.726;2024-02-21T14:56:44;17.80;69.30
13052;DHT22;6592;47.484;9.726;2024-02-21T14:59:13;17.60;71.10
13052;DHT22;6592;47.484;9.726;2024-02-21T15:01:56;17.40;71.90
13052;DHT22;6592;47.484;9.726;2024-02-21T15:04:25;17.20;71.80
13052;DHT22;6592;47.484;9.726;2024-02-21T15:06:53;17.20;72.00
13052;DHT22;6592;47.484;9.726;2024-02-21T15:09:21;17.10;73.00
13052;DHT22;6592;47.484;9.726;2024-02-21T15:11:50;17.00;74.40
13052;DHT22;6592;47.484;9.726;2024-02-21T15:14:18;17.00;75.90
13052;DHT22;6592;47.484;9.726;2024-02-21T15:16:51;17.00;76.30
13052;DHT22;6592;47.484;9.726;2024-02-21T15:19:20;16.90;76.70
13052;DHT22;6592;47.484;9.726;2024-02-21T15:21:49;16.90;77.00
13052;DHT22;6592;47.484;9.726;2024-02-21T15:24:17;16.80;77.40
13052;DHT22;6592;47.484;9.726;2024-02-21T15:26:46;16.70;77.60
13052;DHT22;6592;47.484;9.726;2024-02-21T15:29:14;16.60;76.90
13052;DHT22;6592;47.484;9.726;2024-02-21T15:31:42;16.50;79.20
13052;DHT22;6592;47.484;9.726;2024-02-21T15:34:14;16.30;79.00
13052;DHT22;6592;47.484;9.726;2024-02-21T15:36:45;16.20;79.20
13052;DHT22;6592;47.484;9.726;2024-02-21T15:39:13;15.90;79.90
13052;DHT22;6592;47.484;9.726;2024-02-21T15:41:42;15.70;80.80
13052;DHT22;6592;47.484;9.726;2024-02-21T15:44:10;15.50;81.00
13052;DHT22;6592;47.484;9.726;2024-02-21T15:46:38;15.10;81.10
13052;DHT22;6592;47.484;9.726;2024-02-21T15:49:07;14.90;81.70
13052;DHT22;6592;47.484;9.726;2024-02-21T15:51:35;14.70;82.20
13052;DHT22;6592;47.484;9.726;2024-02-21T15:54:08;14.50;83.60
13052;DHT22;6592;47.484;9.726;2024-02-21T15:56:36;14.30;84.20
13052;DHT22;6592;47.484;9.726;2024-02-21T15:59:04;14.10;85.60
13052;DHT22;6592;47.484;9.726;2024-02-21T16:01:33;13.90;86.50
13052;DHT22;6592;47.484;9.726;2024-02-21T16:04:02;13.60;87.30
13052;DHT22;6592;47.484;9.726;2024-02-21T16:06:32;13.40;88.20